EGMD/LYX METAR and TAF weather

Enter ICAO airport designator
Station Type Date Time Source
EGMD METAR 2018/04/21 20:50 UTC NOAA

EGMD 212050Z AUTO 07012KT 8000 NCD 13/10 Q1015


Station Type Date Time Source
EGMD Decoded METAR 2018/04/21 20:50 UTC NOAA

Lydd Airport , United Kingdom (EGMD) 50-57N 000-56E
Apr 21, 2018 - 04:50 PM EDT / 2018.04.21 2050 UTC
Wind: from the ENE (070 degrees) at 14 MPH (12 KT):0
Visibility: 4 mile(s):0
Temperature: 55 F (13 C)
Dew Point: 50 F (10 C)
Relative Humidity: 81%
Pressure (altimeter): 29.97 in. Hg (1015 hPa)
ob: EGMD 212050Z AUTO 07012KT 8000 NCD 13/10 Q1015
cycle: 21

Station Type Date Time Source
EGMD TAF UTC NOAA

Error!


Example: see airport list